Time;durP1;ratioP1;P1;durP2;ratioP2;P2;SDS_P1;SDS_P2;PMS_P1;PMS_P2;Temp;Humidity;BMP_temperature;BMP_pressure;BME280_temperature;BME280_humidity;BME280_pressure;Samples;Min_cycle;Max_cycle;Signal;HPM_P1;HPM_P2
2022/12/31 00:00:09;;;;;;;;;;;;;;;;;;6210611;23;19919;-75
2022/12/31 00:02:35;;;;;;;;;;;;;;;;;;6210680;23;19944;-76
2022/12/31 00:05:00;;;;;;;;;;;;;;;;;;6210268;23;19912;-76
2022/12/31 00:07:26;;;;;;;;;;;;;;;;;;6210047;23;19920;-75
2022/12/31 00:09:52;;;;;;;;;;;;;;;;;;6210770;23;19912;-74
2022/12/31 00:12:17;;;;;;;;;;;;;;;;;;6209725;23;19919;-75
2022/12/31 00:14:43;;;;;;;;;;;;;;;;;;6208871;23;19966;-75
2022/12/31 00:17:09;;;;;;;;;;;;;;;;;;6210448;23;19918;-75
2022/12/31 00:19:34;;;;;;;;;;;;;;;;;;6210466;23;19912;-75
2022/12/31 00:22:00;;;;;;;;;;;;;;;;;;6210037;23;19919;-76
2022/12/31 00:24:29;;;;;;;;;;;;;;;;;;6210282;23;20354;-75
2022/12/31 00:26:55;;;;;;;;;;;;;;;;;;6210247;23;19927;-75
2022/12/31 00:29:21;;;;;;;;;;;;;;;;;;6210233;23;19916;-75
2022/12/31 00:31:47;;;;;;;;;;;;;;;;;;6208647;23;19912;-76
2022/12/31 00:34:12;;;;;;;;;;;;;;;;;;6207434;23;20432;-75
2022/12/31 00:36:38;;;;;;;;;;;;;;;;;;6210024;23;19912;-76
2022/12/31 00:39:04;;;;;;;;;;;;;;;;;;6210443;23;19912;-74
2022/12/31 00:41:30;;;;;;;;;;;;;;;;;;6210295;23;20002;-76
2022/12/31 00:43:55;;;;;;;;;;;;;;;;;;6210146;23;20364;-75
2022/12/31 00:46:21;;;;;;;;;;;;;;;;;;6209753;23;19956;-75
2022/12/31 00:48:46;;;;;;;;;;;;;;;;;;6209331;23;19923;-74
2022/12/31 00:51:12;;;;;;;;;;;;;;;;;;6208671;23;19918;-75
2022/12/31 00:53:38;;;;;;;;;;;;;;;;;;6209509;23;19919;-75
2022/12/31 00:56:03;;;;;;;;;;;;;;;;;;6210108;23;19912;-75
2022/12/31 00:58:29;;;;;;;;;;;;;;;;;;6208476;23;19943;-75
2022/12/31 01:00:55;;;;;;;;;;;;;;;;;;6209212;23;19912;-75
2022/12/31 01:03:20;;;;;;;;;;;;;;;;;;6209476;23;19912;-74
2022/12/31 01:05:46;;;;;;;;;;;;;;;;;;6209784;23;19935;-74
2022/12/31 01:08:12;;;;;;;;;;;;;;;;;;6208895;23;19924;-74
2022/12/31 01:13:22;;;;;;;;;;;;;;;;;;6209486;23;19916;-75
2022/12/31 01:15:47;;;;;;;;;;;;;;;;;;6209923;23;19912;-76
2022/12/31 01:18:13;;;;;;;;;;;;;;;;;;6209950;23;19997;-75
2022/12/31 01:20:38;;;;;;;;;;;;;;;;;;6210415;23;19911;-77
2022/12/31 01:23:04;;;;;;;;;;;;;;;;;;6211149;23;19962;-76
2022/12/31 01:25:30;;;;;;;;;;;;;;;;;;6210830;23;19919;-76
2022/12/31 01:27:56;;;;;;;;;;;;;;;;;;6210240;23;19920;-76
2022/12/31 01:30:21;;;;;;;;;;;;;;;;;;6210820;23;19922;-76
2022/12/31 01:32:47;;;;;;;;;;;;;;;;;;6210770;23;19912;-75
2022/12/31 01:35:13;;;;;;;;;;;;;;;;;;6210723;23;19912;-78
2022/12/31 01:37:38;;;;;;;;;;;;;;;;;;6211036;23;19956;-76
2022/12/31 01:40:04;;;;;;;;;;;;;;;;;;6211090;23;20456;-77
2022/12/31 01:42:31;;;;;;;;;;;;;;;;;;6184620;23;19946;-76
2022/12/31 01:44:57;;;;;;;;;;;;;;;;;;6211302;23;19912;-76
2022/12/31 01:47:22;;;;;;;;;;;;;;;;;;6211027;23;19995;-77
2022/12/31 01:49:48;;;;;;;;;;;;;;;;;;6211416;23;19918;-79
2022/12/31 01:52:14;;;;;;;;;;;;;;;;;;6209589;23;19919;-76
2022/12/31 01:54:39;;;;;;;;;;;;;;;;;;6184596;23;19919;-79
2022/12/31 01:57:05;;;;;;;;;;;;;;;;;;6211317;23;19908;-77
2022/12/31 01:59:30;;;;;;;;;;;;;;;;;;6210354;23;19912;-76
2022/12/31 02:01:56;;;;;;;;;;;;;;;;;;6209623;23;20268;-78
2022/12/31 02:04:22;;;;;;;;;;;;;;;;;;6209147;23;20353;-77
2022/12/31 02:06:48;;;;;;;;;;;;;;;;;;6211094;23;20302;-80
2022/12/31 02:09:13;;;;;;;;;;;;;;;;;;6210520;23;19912;-79
2022/12/31 02:11:39;;;;;;;;;;;;;;;;;;6220281;23;19912;-78
2022/12/31 02:14:05;;;;;;;;;;;;;;;;;;6211857;23;19911;-76
2022/12/31 02:16:30;;;;;;;;;;;;;;;;;;6209791;23;19962;-80
2022/12/31 02:18:56;;;;;;;;;;;;;;;;;;6210018;23;19908;-78
2022/12/31 02:21:22;;;;;;;;;;;;;;;;;;6210727;23;19998;-78
2022/12/31 02:23:47;;;;;;;;;;;;;;;;;;6211143;23;20445;-78
2022/12/31 02:26:13;;;;;;;;;;;;;;;;;;6211188;23;19920;-78
2022/12/31 02:28:39;;;;;;;;;;;;;;;;;;6211590;23;20378;-79
2022/12/31 02:31:05;;;;;;;;;;;;;;;;;;6212363;23;20345;-78
2022/12/31 02:33:30;;;;;;;;;;;;;;;;;;6212607;23;20006;-80
2022/12/31 02:35:56;;;;;;;;;;;;;;;;;;6213186;23;19919;-78
2022/12/31 02:38:22;;;;;;;;;;;;;;;;;;6211983;23;19932;-78
2022/12/31 02:40:47;;;;;;;;;;;;;;;;;;6214674;23;19990;-78
2022/12/31 02:43:13;;;;;;;;;;;;;;;;;;6215736;23;19912;-79
2022/12/31 02:45:38;;;;;;;;;;;;;;;;;;6217234;23;19938;-78
2022/12/31 02:48:04;;;;;;;;;;;;;;;;;;6214265;23;20210;-78
2022/12/31 02:50:30;;;;;;;;;;;;;;;;;;6211799;23;19934;-78
2022/12/31 02:52:55;;;;;;;;;;;;;;;;;;6211577;23;20310;-79
2022/12/31 02:55:21;;;;;;;;;;;;;;;;;;6210917;23;20331;-77
2022/12/31 02:57:47;;;;;;;;;;;;;;;;;;6187349;23;19998;-77
2022/12/31 03:02:56;;;;;;;;;;;;;;;;;;6210969;23;19912;-76
2022/12/31 03:05:22;;;;;;;;;;;;;;;;;;6215143;23;19919;-79
2022/12/31 03:07:48;;;;;;;;;;;;;;;;;;6220742;23;19923;-80
2022/12/31 03:10:14;;;;;;;;;;;;;;;;;;6220162;23;19934;-80
2022/12/31 03:12:46;;;;;;;;;;;;;;;;;;6195730;23;19939;-82
2022/12/31 03:15:21;;;;;;;;;;;;;;;;;;6225452;23;19998;-79
2022/12/31 03:17:47;;;;;;;;;;;;;;;;;;6226647;23;19912;-78
2022/12/31 03:22:57;;;;;;;;;;;;;;;;;;6230075;23;19965;-82
2022/12/31 03:25:33;;;;;;;;;;;;;;;;;;6229181;23;19912;-78
2022/12/31 03:27:59;;;;;;;;;;;;;;;;;;6220526;23;19951;-78
2022/12/31 03:30:25;;;;;;;;;;;;;;;;;;6221054;23;19912;-78
2022/12/31 03:32:51;;;;;;;;;;;;;;;;;;6227403;23;20246;-78
2022/12/31 03:35:18;;;;;;;;;;;;;;;;;;6228424;23;19954;-78
2022/12/31 03:37:43;;;;;;;;;;;;;;;;;;6223302;23;20395;-80
2022/12/31 03:40:09;;;;;;;;;;;;;;;;;;6221200;23;19955;-81
2022/12/31 03:42:36;;;;;;;;;;;;;;;;;;6221810;23;19960;-80
2022/12/31 03:45:01;;;;;;;;;;;;;;;;;;6220094;23;20241;-79
2022/12/31 03:47:28;;;;;;;;;;;;;;;;;;6219584;23;20384;-80
2022/12/31 03:49:54;;;;;;;;;;;;;;;;;;6221636;23;19931;-80
2022/12/31 03:52:19;;;;;;;;;;;;;;;;;;6219345;23;19938;-80
2022/12/31 03:54:45;;;;;;;;;;;;;;;;;;6221968;23;19912;-78
2022/12/31 03:57:11;;;;;;;;;;;;;;;;;;6218900;23;19916;-78
2022/12/31 03:59:37;;;;;;;;;;;;;;;;;;6221980;23;19915;-78
2022/12/31 04:02:02;;;;;;;;;;;;;;;;;;6197640;23;19944;-80
2022/12/31 04:04:28;;;;;;;;;;;;;;;;;;6195174;23;20342;-80
2022/12/31 04:06:54;;;;;;;;;;;;;;;;;;6221510;23;19997;-80
2022/12/31 04:09:20;;;;;;;;;;;;;;;;;;6233232;23;19916;-79
2022/12/31 04:11:45;;;;;;;;;;;;;;;;;;6218293;23;20491;-80
2022/12/31 04:14:11;;;;;;;;;;;;;;;;;;6222237;23;20026;-78
2022/12/31 04:16:37;;;;;;;;;;;;;;;;;;6219888;23;19919;-79
2022/12/31 04:19:02;;;;;;;;;;;;;;;;;;6221702;23;19934;-81
2022/12/31 04:21:28;;;;;;;;;;;;;;;;;;6221706;23;19912;-78
2022/12/31 04:23:54;;;;;;;;;;;;;;;;;;6224632;23;19935;-80
2022/12/31 04:26:19;;;;;;;;;;;;;;;;;;6226871;23;19942;-80
2022/12/31 04:28:45;;;;;;;;;;;;;;;;;;6225792;23;19916;-80
2022/12/31 04:31:10;;;;;;;;;;;;;;;;;;6230268;23;19916;-81
2022/12/31 04:33:36;;;;;;;;;;;;;;;;;;6221417;23;20430;-77
2022/12/31 04:36:02;;;;;;;;;;;;;;;;;;6215468;23;19916;-76
2022/12/31 04:38:30;;;;;;;;;;;;;;;;;;6213662;23;19945;-78
2022/12/31 04:43:40;;;;;;;;;;;;;;;;;;6216594;23;19912;-78
2022/12/31 04:46:06;;;;;;;;;;;;;;;;;;6213530;23;19989;-77
2022/12/31 04:48:32;;;;;;;;;;;;;;;;;;6213129;23;20288;-77
2022/12/31 04:50:57;;;;;;;;;;;;;;;;;;6214952;23;20356;-79
2022/12/31 04:53:23;;;;;;;;;;;;;;;;;;6219966;23;19912;-78
2022/12/31 04:55:49;;;;;;;;;;;;;;;;;;6231453;23;19966;-78
2022/12/31 04:58:14;;;;;;;;;;;;;;;;;;6228443;23;19918;-79
2022/12/31 05:00:40;;;;;;;;;;;;;;;;;;6228441;23;19919;-79
2022/12/31 05:03:06;;;;;;;;;;;;;;;;;;6227129;23;19912;-78
2022/12/31 05:05:32;;;;;;;;;;;;;;;;;;6215969;23;19924;-81
2022/12/31 05:07:57;;;;;;;;;;;;;;;;;;6213725;23;20517;-80
2022/12/31 05:10:23;;;;;;;;;;;;;;;;;;6213251;23;19991;-79
2022/12/31 05:12:49;;;;;;;;;;;;;;;;;;6210697;23;19958;-78
2022/12/31 05:15:14;;;;;;;;;;;;;;;;;;6210753;23;20351;-80
2022/12/31 05:17:40;;;;;;;;;;;;;;;;;;6212244;23;19912;-80
2022/12/31 05:20:06;;;;;;;;;;;;;;;;;;6212758;23;19982;-78
2022/12/31 05:22:32;;;;;;;;;;;;;;;;;;6214515;23;19923;-80
2022/12/31 05:24:58;;;;;;;;;;;;;;;;;;6214822;23;19912;-80
2022/12/31 05:27:23;;;;;;;;;;;;;;;;;;6213333;23;20454;-80
2022/12/31 05:29:49;;;;;;;;;;;;;;;;;;6212200;23;20345;-79
2022/12/31 05:32:15;;;;;;;;;;;;;;;;;;6210239;23;19915;-78
2022/12/31 05:34:41;;;;;;;;;;;;;;;;;;6211389;23;19919;-76
2022/12/31 05:37:06;;;;;;;;;;;;;;;;;;6211874;23;19912;-79
2022/12/31 05:39:32;;;;;;;;;;;;;;;;;;6211542;23;19912;-79
2022/12/31 05:41:57;;;;;;;;;;;;;;;;;;6211570;23;19915;-81
2022/12/31 05:44:23;;;;;;;;;;;;;;;;;;6213721;23;20561;-80
2022/12/31 05:46:49;;;;;;;;;;;;;;;;;;6213006;23;19941;-80
2022/12/31 05:49:15;;;;;;;;;;;;;;;;;;6213258;23;19919;-79
2022/12/31 05:51:40;;;;;;;;;;;;;;;;;;6210750;23;19911;-80
2022/12/31 05:54:06;;;;;;;;;;;;;;;;;;6212649;23;19911;-79
2022/12/31 05:56:32;;;;;;;;;;;;;;;;;;6210773;23;19923;-79
2022/12/31 05:58:57;;;;;;;;;;;;;;;;;;6211599;23;19911;-78
2022/12/31 06:01:23;;;;;;;;;;;;;;;;;;6211310;23;19990;-78
2022/12/31 06:03:48;;;;;;;;;;;;;;;;;;6210904;23;19923;-79
2022/12/31 06:06:14;;;;;;;;;;;;;;;;;;6210808;23;19912;-78
2022/12/31 06:08:40;;;;;;;;;;;;;;;;;;6211116;23;19919;-79
2022/12/31 06:11:05;;;;;;;;;;;;;;;;;;6211305;23;19951;-79
2022/12/31 06:13:31;;;;;;;;;;;;;;;;;;6210232;23;19916;-79
2022/12/31 06:15:57;;;;;;;;;;;;;;;;;;6211425;23;19919;-78
2022/12/31 06:18:23;;;;;;;;;;;;;;;;;;6212528;23;19912;-80
2022/12/31 06:20:48;;;;;;;;;;;;;;;;;;6211660;23;20371;-79
2022/12/31 06:23:14;;;;;;;;;;;;;;;;;;6211406;23;19912;-78
2022/12/31 06:25:40;;;;;;;;;;;;;;;;;;6211379;23;19912;-80
2022/12/31 06:28:06;;;;;;;;;;;;;;;;;;6219242;23;19938;-83
2022/12/31 06:30:32;;;;;;;;;;;;;;;;;;6234266;23;19963;-84
2022/12/31 06:32:58;;;;;;;;;;;;;;;;;;6233484;23;19960;-85
2022/12/31 06:35:23;;;;;;;;;;;;;;;;;;6232518;23;19923;-82
2022/12/31 06:37:49;;;;;;;;;;;;;;;;;;6218677;23;20299;-80
2022/12/31 06:40:15;;;;;;;;;;;;;;;;;;6211799;23;20002;-80
2022/12/31 06:42:41;;;;;;;;;;;;;;;;;;6214377;23;19967;-81
2022/12/31 06:45:07;;;;;;;;;;;;;;;;;;6212787;23;19935;-81
2022/12/31 06:47:32;;;;;;;;;;;;;;;;;;6210629;23;20443;-82
2022/12/31 06:49:58;;;;;;;;;;;;;;;;;;6223693;23;19912;-85
2022/12/31 06:52:24;;;;;;;;;;;;;;;;;;6235273;23;19956;-82
2022/12/31 06:54:49;;;;;;;;;;;;;;;;;;6216896;23;19912;-81
2022/12/31 06:57:15;;;;;;;;;;;;;;;;;;6216045;23;19912;-80
2022/12/31 06:59:41;;;;;;;;;;;;;;;;;;6231940;23;19912;-84
2022/12/31 07:02:07;;;;;;;;;;;;;;;;;;6236827;23;19924;-82
2022/12/31 07:04:32;;;;;;;;;;;;;;;;;;6229015;23;19951;-82
2022/12/31 07:06:58;;;;;;;;;;;;;;;;;;6217582;23;19920;-83
2022/12/31 07:09:23;;;;;;;;;;;;;;;;;;6223499;23;19934;-81
2022/12/31 07:11:49;;;;;;;;;;;;;;;;;;6216881;23;19977;-82
2022/12/31 07:14:14;;;;;;;;;;;;;;;;;;6220619;23;19979;-84
2022/12/31 07:16:40;;;;;;;;;;;;;;;;;;6219857;23;19931;-81
2022/12/31 07:19:06;;;;;;;;;;;;;;;;;;6220003;23;19912;-82
2022/12/31 07:21:31;;;;;;;;;;;;;;;;;;6223426;23;19923;-82
2022/12/31 07:23:57;;;;;;;;;;;;;;;;;;6217515;23;20446;-81
2022/12/31 07:26:22;;;;;;;;;;;;;;;;;;6216675;23;19974;-82
2022/12/31 07:28:48;;;;;;;;;;;;;;;;;;6223571;23;19912;-86
2022/12/31 07:31:14;;;;;;;;;;;;;;;;;;6238394;23;19920;-86
2022/12/31 07:33:39;;;;;;;;;;;;;;;;;;6225209;23;20356;-82
2022/12/31 07:36:05;;;;;;;;;;;;;;;;;;6229956;23;19912;-84
2022/12/31 07:38:31;;;;;;;;;;;;;;;;;;6223970;23;20353;-83
2022/12/31 07:40:56;;;;;;;;;;;;;;;;;;6220628;22;20826;-84
2022/12/31 07:43:22;;;;;;;;;;;;;;;;;;6269971;22;19938;-82
2022/12/31 07:45:48;;;;;;;;;;;;;;;;;;6268478;23;19911;-83
2022/12/31 07:48:13;;;;;;;;;;;;;;;;;;6235167;23;19998;-81
2022/12/31 07:50:39;;;;;;;;;;;;;;;;;;6229219;23;20300;-80
2022/12/31 07:53:04;;;;;;;;;;;;;;;;;;6254340;23;19937;-81
2022/12/31 07:55:30;;;;;;;;;;;;;;;;;;6229375;23;19907;-83
2022/12/31 07:57:56;;;;;;;;;;;;;;;;;;6219940;23;19912;-80
2022/12/31 08:00:21;;;;;;;;;;;;;;;;;;6221720;23;20006;-82
2022/12/31 08:02:47;;;;;;;;;;;;;;;;;;6251568;23;19955;-81
2022/12/31 08:05:13;;;;;;;;;;;;;;;;;;6256103;23;19912;-84
2022/12/31 08:07:39;;;;;;;;;;;;;;;;;;6251457;23;19920;-81
2022/12/31 08:10:04;;;;;;;;;;;;;;;;;;6219019;23;19943;-82
2022/12/31 08:12:30;;;;;;;;;;;;;;;;;;6248618;23;19950;-82
2022/12/31 08:39:48;;;;;;;;;;;;;;;;;;6243497;23;19924;-78
2022/12/31 08:42:14;;;;;;;;;;;;;;;;;;6241411;23;19911;-80
2022/12/31 08:44:39;;;;;;;;;;;;;;;;;;6241504;23;19919;-79
2022/12/31 08:47:05;;;;;;;;;;;;;;;;;;6189447;23;19919;-80
2022/12/31 08:49:31;;;;;;;;;;;;;;;;;;6218008;23;20001;-82
2022/12/31 08:51:57;;;;;;;;;;;;;;;;;;6247456;23;19920;-82
2022/12/31 08:54:22;;;;;;;;;;;;;;;;;;6247903;23;19991;-82
2022/12/31 08:56:48;;;;;;;;;;;;;;;;;;6219324;23;19912;-81
2022/12/31 08:59:15;;;;;;;;;;;;;;;;;;6244390;23;19935;-80
2022/12/31 09:01:40;;;;;;;;;;;;;;;;;;6214760;23;20345;-81
2022/12/31 09:04:06;;;;;;;;;;;;;;;;;;6241957;23;19911;-79
2022/12/31 09:06:33;;;;;;;;;;;;;;;;;;6241806;23;19926;-81
2022/12/31 09:08:59;;;;;;;;;;;;;;;;;;6242106;23;19912;-79
2022/12/31 09:11:25;;;;;;;;;;;;;;;;;;6214790;23;20431;-80
2022/12/31 09:13:50;;;;;;;;;;;;;;;;;;6216366;23;19935;-80
2022/12/31 09:16:16;;;;;;;;;;;;;;;;;;6229752;23;19912;-79
2022/12/31 09:18:42;;;;;;;;;;;;;;;;;;6258278;23;20001;-80
2022/12/31 09:21:08;;;;;;;;;;;;;;;;;;6258977;23;19912;-85
2022/12/31 09:23:33;;;;;;;;;;;;;;;;;;6257316;23;19916;-85
2022/12/31 09:25:59;;;;;;;;;;;;;;;;;;6253880;23;19911;-82
2022/12/31 09:28:25;;;;;;;;;;;;;;;;;;6263989;23;20006;-85
2022/12/31 09:30:50;;;;;;;;;;;;;;;;;;6260044;23;19919;-86
2022/12/31 09:33:16;;;;;;;;;;;;;;;;;;6264000;23;20122;-84
2022/12/31 09:35:44;;;;;;;;;;;;;;;;;;6236742;23;19994;-83
2022/12/31 09:38:09;;;;;;;;;;;;;;;;;;6265988;23;19916;-85
2022/12/31 09:40:35;;;;;;;;;;;;;;;;;;6267956;23;19950;-83
2022/12/31 09:43:01;;;;;;;;;;;;;;;;;;6262768;23;19911;-84
2022/12/31 09:45:27;;;;;;;;;;;;;;;;;;6266388;23;19930;-85
2022/12/31 09:47:52;;;;;;;;;;;;;;;;;;6268014;23;19943;-84
2022/12/31 09:50:19;;;;;;;;;;;;;;;;;;6262592;23;19911;-83
2022/12/31 09:52:44;;;;;;;;;;;;;;;;;;6254429;23;19938;-84
2022/12/31 09:55:10;;;;;;;;;;;;;;;;;;6259654;23;19911;-82
2022/12/31 09:57:36;;;;;;;;;;;;;;;;;;6258984;23;19912;-83
2022/12/31 10:00:02;;;;;;;;;;;;;;;;;;6235200;23;19911;-85
2022/12/31 10:02:37;;;;;;;;;;;;;;;;;;6252857;23;20431;-82
2022/12/31 10:05:03;;;;;;;;;;;;;;;;;;6250819;23;19922;-85
2022/12/31 10:07:28;;;;;;;;;;;;;;;;;;6264161;23;19924;-84
2022/12/31 10:09:54;;;;;;;;;;;;;;;;;;6256986;23;19911;-82
2022/12/31 10:12:20;;;;;;;;;;;;;;;;;;6258357;23;19944;-83
2022/12/31 10:14:46;;;;;;;;;;;;;;;;;;6231944;23;20037;-85
2022/12/31 10:17:11;;;;;;;;;;;;;;;;;;6256669;23;19919;-82
2022/12/31 10:19:37;;;;;;;;;;;;;;;;;;6264973;23;19935;-84
2022/12/31 10:22:02;;;;;;;;;;;;;;;;;;6240470;23;19892;-84
2022/12/31 10:24:29;;;;;;;;;;;;;;;;;;6265220;23;19942;-84
2022/12/31 10:26:54;;;;;;;;;;;;;;;;;;6266452;23;19919;-84
2022/12/31 10:29:20;;;;;;;;;;;;;;;;;;6269887;23;19955;-84
2022/12/31 10:31:46;;;;;;;;;;;;;;;;;;6263269;23;20014;-83
2022/12/31 10:34:11;;;;;;;;;;;;;;;;;;6260097;23;19911;-84
2022/12/31 10:36:37;;;;;;;;;;;;;;;;;;6255220;23;19911;-82
2022/12/31 10:39:03;;;;;;;;;;;;;;;;;;6258776;23;19896;-82
2022/12/31 10:41:28;;;;;;;;;;;;;;;;;;6253784;23;19926;-85
2022/12/31 10:43:54;;;;;;;;;;;;;;;;;;6225142;23;19912;-82
2022/12/31 10:46:20;;;;;;;;;;;;;;;;;;6250462;23;19918;-82
2022/12/31 10:48:46;;;;;;;;;;;;;;;;;;6202456;23;19911;-82
2022/12/31 10:51:14;;;;;;;;;;;;;;;;;;6235041;23;19915;-82
2022/12/31 10:53:39;;;;;;;;;;;;;;;;;;6259796;23;19912;-82
2022/12/31 10:56:05;;;;;;;;;;;;;;;;;;6255060;23;19938;-82
2022/12/31 10:58:31;;;;;;;;;;;;;;;;;;6263415;23;19935;-83
2022/12/31 11:00:57;;;;;;;;;;;;;;;;;;6264008;23;19923;-85
2022/12/31 11:03:23;;;;;;;;;;;;;;;;;;6266935;23;19896;-84
2022/12/31 11:05:49;;;;;;;;;;;;;;;;;;6265658;23;19923;-80
2022/12/31 11:08:15;;;;;;;;;;;;;;;;;;6248865;23;19998;-81
2022/12/31 11:10:40;;;;;;;;;;;;;;;;;;6216150;23;20402;-82
2022/12/31 11:13:06;;;;;;;;;;;;;;;;;;6243561;23;20259;-81
2022/12/31 11:15:32;;;;;;;;;;;;;;;;;;6265416;23;19913;-85
2022/12/31 11:17:57;;;;;;;;;;;;;;;;;;6266224;22;19942;-80
2022/12/31 11:20:23;;;;;;;;;;;;;;;;;;6261330;22;19915;-85
2022/12/31 11:22:49;;;;;;;;;;;;;;;;;;6263258;23;19962;-86
2022/12/31 11:25:14;;;;;;;;;;;;;;;;;;6269695;23;19939;-85
2022/12/31 11:27:40;;;;;;;;;;;;;;;;;;6267203;23;19919;-88
2022/12/31 11:30:05;;;;;;;;;;;;;;;;;;6268493;22;19900;-89
2022/12/31 12:30:29;;;;;;;;;;;;;;;;;;6209869;23;19931;-82
2022/12/31 12:32:55;;;;;;;;;;;;;;;;;;6239089;23;20415;-82
2022/12/31 12:35:21;;;;;;;;;;;;;;;;;;6238027;23;19911;-80
2022/12/31 12:37:47;;;;;;;;;;;;;;;;;;6184568;23;19916;-82
2022/12/31 12:40:12;;;;;;;;;;;;;;;;;;6211869;23;19911;-81
2022/12/31 12:42:38;;;;;;;;;;;;;;;;;;6211629;23;19911;-81
2022/12/31 12:45:04;;;;;;;;;;;;;;;;;;6239297;23;19912;-82
2022/12/31 12:47:29;;;;;;;;;;;;;;;;;;6239396;23;19919;-81
2022/12/31 12:49:55;;;;;;;;;;;;;;;;;;6248018;23;19922;-81
2022/12/31 12:52:21;;;;;;;;;;;;;;;;;;6248294;23;20139;-80
2022/12/31 12:54:46;;;;;;;;;;;;;;;;;;6243205;23;20011;-82
2022/12/31 12:57:12;;;;;;;;;;;;;;;;;;6241133;23;19912;-80
2022/12/31 12:59:38;;;;;;;;;;;;;;;;;;6241869;23;19915;-81
2022/12/31 13:02:04;;;;;;;;;;;;;;;;;;6190928;23;19911;-81
2022/12/31 13:04:29;;;;;;;;;;;;;;;;;;6214546;23;19919;-81
2022/12/31 13:06:55;;;;;;;;;;;;;;;;;;6241316;23;19981;-81
2022/12/31 13:09:21;;;;;;;;;;;;;;;;;;6213300;23;19912;-81
2022/12/31 13:11:46;;;;;;;;;;;;;;;;;;6213424;23;19970;-80
2022/12/31 13:14:12;;;;;;;;;;;;;;;;;;6240032;23;19935;-82
2022/12/31 13:16:37;;;;;;;;;;;;;;;;;;6240240;23;19912;-81
2022/12/31 13:19:03;;;;;;;;;;;;;;;;;;6239845;23;20533;-81
2022/12/31 13:21:29;;;;;;;;;;;;;;;;;;6240456;23;19915;-79
2022/12/31 13:23:55;;;;;;;;;;;;;;;;;;6239974;23;19911;-80
2022/12/31 13:26:20;;;;;;;;;;;;;;;;;;6241144;23;20403;-80
2022/12/31 13:28:46;;;;;;;;;;;;;;;;;;6243271;23;19918;-82
2022/12/31 13:31:12;;;;;;;;;;;;;;;;;;6242684;23;20288;-83
2022/12/31 13:33:37;;;;;;;;;;;;;;;;;;6242234;23;19912;-82
2022/12/31 13:36:03;;;;;;;;;;;;;;;;;;6243271;23;20317;-82
2022/12/31 13:38:29;;;;;;;;;;;;;;;;;;6243256;23;19911;-82
2022/12/31 13:40:54;;;;;;;;;;;;;;;;;;6215476;23;19918;-82
2022/12/31 13:43:20;;;;;;;;;;;;;;;;;;6243446;23;19951;-83
2022/12/31 13:45:46;;;;;;;;;;;;;;;;;;6215124;23;19911;-81
2022/12/31 13:48:11;;;;;;;;;;;;;;;;;;6215439;23;19929;-82
2022/12/31 13:50:37;;;;;;;;;;;;;;;;;;6242669;23;20261;-82
2022/12/31 13:53:02;;;;;;;;;;;;;;;;;;6242886;23;19912;-82
2022/12/31 13:55:29;;;;;;;;;;;;;;;;;;6242248;23;20299;-82
2022/12/31 13:57:54;;;;;;;;;;;;;;;;;;6242599;23;20002;-82
2022/12/31 14:00:20;;;;;;;;;;;;;;;;;;6241714;23;19912;-81
2022/12/31 14:02:46;;;;;;;;;;;;;;;;;;6215193;23;20565;-82
2022/12/31 14:05:11;;;;;;;;;;;;;;;;;;6249573;23;19969;-83
2022/12/31 14:07:37;;;;;;;;;;;;;;;;;;6223852;23;20399;-82
2022/12/31 14:10:03;;;;;;;;;;;;;;;;;;6248639;23;20492;-83
2022/12/31 14:12:29;;;;;;;;;;;;;;;;;;6250438;23;19947;-82
2022/12/31 14:14:54;;;;;;;;;;;;;;;;;;6191701;23;19911;-81
2022/12/31 14:17:20;;;;;;;;;;;;;;;;;;6216262;23;19915;-81
2022/12/31 14:19:46;;;;;;;;;;;;;;;;;;6242739;23;20345;-80
2022/12/31 14:22:11;;;;;;;;;;;;;;;;;;6214737;23;19986;-81
2022/12/31 14:24:37;;;;;;;;;;;;;;;;;;6242434;23;19916;-80
2022/12/31 14:27:02;;;;;;;;;;;;;;;;;;6241217;23;19990;-81
2022/12/31 14:29:28;;;;;;;;;;;;;;;;;;6189873;23;19911;-82
2022/12/31 14:31:54;;;;;;;;;;;;;;;;;;6244390;23;19920;-81
2022/12/31 14:34:20;;;;;;;;;;;;;;;;;;6243081;23;19938;-83
2022/12/31 14:36:46;;;;;;;;;;;;;;;;;;6216996;23;20028;-82
2022/12/31 14:39:11;;;;;;;;;;;;;;;;;;6243700;23;19912;-81
2022/12/31 14:41:37;;;;;;;;;;;;;;;;;;6242969;23;19922;-82
2022/12/31 14:44:03;;;;;;;;;;;;;;;;;;6218793;23;19911;-84
2022/12/31 14:46:29;;;;;;;;;;;;;;;;;;6258970;23;20485;-85
2022/12/31 14:48:57;;;;;;;;;;;;;;;;;;6257634;23;20321;-83
2022/12/31 14:51:23;;;;;;;;;;;;;;;;;;6254882;23;19995;-83
2022/12/31 14:53:48;;;;;;;;;;;;;;;;;;6255919;23;19912;-83
2022/12/31 14:56:14;;;;;;;;;;;;;;;;;;6252211;23;19930;-82
2022/12/31 14:58:41;;;;;;;;;;;;;;;;;;6252374;23;20340;-84
2022/12/31 15:19:57;;;;;;;;;;;;;;;;;;6220103;23;19924;-81
2022/12/31 15:22:23;;;;;;;;;;;;;;;;;;6213640;23;19912;-82
2022/12/31 15:24:48;;;;;;;;;;;;;;;;;;6214053;23;19997;-83
2022/12/31 15:27:14;;;;;;;;;;;;;;;;;;6211444;23;20001;-82
2022/12/31 15:29:40;;;;;;;;;;;;;;;;;;6215625;23;19916;-83
2022/12/31 15:32:05;;;;;;;;;;;;;;;;;;6196786;23;19915;-82
2022/12/31 15:34:32;;;;;;;;;;;;;;;;;;6198419;23;19943;-83
2022/12/31 15:36:58;;;;;;;;;;;;;;;;;;6220092;23;19912;-83
2022/12/31 15:39:26;;;;;;;;;;;;;;;;;;6220067;23;20322;-83
2022/12/31 15:41:52;;;;;;;;;;;;;;;;;;6194416;23;19946;-83
2022/12/31 15:44:18;;;;;;;;;;;;;;;;;;6222817;23;19912;-83
2022/12/31 15:46:43;;;;;;;;;;;;;;;;;;6222384;23;19943;-82
2022/12/31 15:49:09;;;;;;;;;;;;;;;;;;6195013;23;19912;-83
2022/12/31 15:51:35;;;;;;;;;;;;;;;;;;6196093;23;20411;-83
2022/12/31 15:54:01;;;;;;;;;;;;;;;;;;6219241;23;20742;-81
2022/12/31 15:56:27;;;;;;;;;;;;;;;;;;6218084;23;19918;-83
2022/12/31 15:58:52;;;;;;;;;;;;;;;;;;6218929;23;19977;-83
2022/12/31 16:01:18;;;;;;;;;;;;;;;;;;6217524;23;19966;-83
2022/12/31 16:03:43;;;;;;;;;;;;;;;;;;6191985;23;19912;-81
2022/12/31 16:06:10;;;;;;;;;;;;;;;;;;6217294;23;19912;-83
2022/12/31 16:08:35;;;;;;;;;;;;;;;;;;6220969;23;19927;-83
2022/12/31 16:11:01;;;;;;;;;;;;;;;;;;6220554;23;19911;-81
2022/12/31 16:13:26;;;;;;;;;;;;;;;;;;6217763;23;19911;-83
2022/12/31 16:15:52;;;;;;;;;;;;;;;;;;6187653;23;20345;-83
2022/12/31 16:18:18;;;;;;;;;;;;;;;;;;6208026;23;19980;-77
2022/12/31 16:20:44;;;;;;;;;;;;;;;;;;6206929;23;19911;-79
2022/12/31 16:23:10;;;;;;;;;;;;;;;;;;6205117;23;19971;-78
2022/12/31 16:25:36;;;;;;;;;;;;;;;;;;6209445;23;19981;-78
2022/12/31 16:28:02;;;;;;;;;;;;;;;;;;6207100;23;19974;-77
2022/12/31 16:30:27;;;;;;;;;;;;;;;;;;6207980;23;19911;-77
2022/12/31 16:32:53;;;;;;;;;;;;;;;;;;6207838;23;19912;-78
2022/12/31 16:35:19;;;;;;;;;;;;;;;;;;6208480;23;19959;-76
2022/12/31 16:37:44;;;;;;;;;;;;;;;;;;6181285;23;19908;-77
2022/12/31 16:40:10;;;;;;;;;;;;;;;;;;6210367;23;20265;-77
2022/12/31 16:42:35;;;;;;;;;;;;;;;;;;6208675;23;20558;-76
2022/12/31 16:45:01;;;;;;;;;;;;;;;;;;6180033;23;19943;-76
2022/12/31 16:47:28;;;;;;;;;;;;;;;;;;6209504;23;19927;-77
2022/12/31 16:49:54;;;;;;;;;;;;;;;;;;6207579;23;19912;-77
2022/12/31 16:52:19;;;;;;;;;;;;;;;;;;6206781;23;19966;-78
2022/12/31 16:54:45;;;;;;;;;;;;;;;;;;6208140;23;19918;-82
2022/12/31 16:57:11;;;;;;;;;;;;;;;;;;6200182;23;19994;-84
2022/12/31 16:59:37;;;;;;;;;;;;;;;;;;6173576;23;19919;-81
2022/12/31 17:02:02;;;;;;;;;;;;;;;;;;6211362;23;19920;-81
2022/12/31 17:04:28;;;;;;;;;;;;;;;;;;6219154;23;19912;-83
2022/12/31 17:06:54;;;;;;;;;;;;;;;;;;6218290;23;20697;-82
2022/12/31 17:09:20;;;;;;;;;;;;;;;;;;6215284;23;19918;-82
2022/12/31 17:11:47;;;;;;;;;;;;;;;;;;6213652;23;20244;-81
2022/12/31 17:14:12;;;;;;;;;;;;;;;;;;6213264;23;20257;-82
2022/12/31 17:16:38;;;;;;;;;;;;;;;;;;6183640;23;19919;-82
2022/12/31 17:19:04;;;;;;;;;;;;;;;;;;6189337;23;20018;-82
2022/12/31 17:21:29;;;;;;;;;;;;;;;;;;6185113;23;19966;-80
2022/12/31 17:23:55;;;;;;;;;;;;;;;;;;6211026;23;19923;-83
2022/12/31 17:26:21;;;;;;;;;;;;;;;;;;6212252;23;20365;-82
2022/12/31 17:28:46;;;;;;;;;;;;;;;;;;6160767;23;20385;-81
2022/12/31 17:31:12;;;;;;;;;;;;;;;;;;6211474;23;19923;-82
2022/12/31 17:33:38;;;;;;;;;;;;;;;;;;6211671;23;19994;-82
2022/12/31 17:36:03;;;;;;;;;;;;;;;;;;6211539;23;19912;-81
2022/12/31 17:38:29;;;;;;;;;;;;;;;;;;6213197;23;19911;-82
2022/12/31 17:40:54;;;;;;;;;;;;;;;;;;6212609;23;19990;-82
2022/12/31 17:43:20;;;;;;;;;;;;;;;;;;6212674;23;19955;-82
2022/12/31 17:45:46;;;;;;;;;;;;;;;;;;6212203;23;20462;-82
2022/12/31 17:48:11;;;;;;;;;;;;;;;;;;6209044;23;20581;-82
2022/12/31 17:50:37;;;;;;;;;;;;;;;;;;6210979;23;19918;-83
2022/12/31 17:53:02;;;;;;;;;;;;;;;;;;6185426;23;19951;-82
2022/12/31 17:55:28;;;;;;;;;;;;;;;;;;6183572;23;19912;-81
2022/12/31 17:57:54;;;;;;;;;;;;;;;;;;6184569;23;20419;-82
2022/12/31 18:00:19;;;;;;;;;;;;;;;;;;6190324;23;19922;-82
2022/12/31 18:02:45;;;;;;;;;;;;;;;;;;6220023;23;19912;-83
2022/12/31 18:05:11;;;;;;;;;;;;;;;;;;6194457;23;19912;-82
2022/12/31 18:07:36;;;;;;;;;;;;;;;;;;6224002;23;20329;-85
2022/12/31 18:10:02;;;;;;;;;;;;;;;;;;6225115;23;19939;-82
2022/12/31 18:12:28;;;;;;;;;;;;;;;;;;6220536;23;19911;-83
2022/12/31 18:14:53;;;;;;;;;;;;;;;;;;6215694;23;19922;-81
2022/12/31 18:17:19;;;;;;;;;;;;;;;;;;6214162;23;19966;-83
2022/12/31 18:19:45;;;;;;;;;;;;;;;;;;6216583;23;20415;-82
2022/12/31 18:22:10;;;;;;;;;;;;;;;;;;6221067;23;19943;-83
2022/12/31 18:24:36;;;;;;;;;;;;;;;;;;6209532;23;20281;-80
2022/12/31 18:27:01;;;;;;;;;;;;;;;;;;6183413;23;20022;-80